createdAt,value
2018-09-19T00:00:42.889Z,0
2018-09-19T00:01:53.032Z,0
2018-09-19T00:03:03.176Z,0
2018-09-19T00:04:13.321Z,0
2018-09-19T00:05:23.487Z,0
2018-09-19T00:06:33.413Z,0
2018-09-19T00:07:43.598Z,0
2018-09-19T00:08:53.469Z,0
2018-09-19T00:10:03.360Z,0
2018-09-19T00:11:13.496Z,0
2018-09-19T00:12:23.414Z,0
2018-09-19T00:13:33.569Z,0
2018-09-19T00:14:43.459Z,0
2018-09-19T00:15:53.359Z,0
2018-09-19T00:17:03.278Z,0
2018-09-19T00:18:13.433Z,0
2018-09-19T00:19:23.599Z,0
2018-09-19T00:20:33.753Z,0
2018-09-19T00:21:43.899Z,0
2018-09-19T00:22:54.007Z,0
2018-09-19T00:24:04.182Z,0
2018-09-19T00:25:14.330Z,0
2018-09-19T00:26:24.473Z,0
2018-09-19T00:27:34.643Z,0
2018-09-19T00:28:44.798Z,0
2018-09-19T00:29:55.040Z,0
2018-09-19T00:31:05.200Z,0
2018-09-19T00:32:15.357Z,0
2018-09-19T00:33:25.561Z,0
2018-09-19T00:34:35.717Z,0
2018-09-19T00:35:45.644Z,0
2018-09-19T00:36:55.785Z,0
2018-09-19T00:38:05.661Z,0
2018-09-19T00:39:15.816Z,0
2018-09-19T00:40:25.987Z,0
2018-09-19T00:41:36.173Z,0
2018-09-19T00:42:46.107Z,0
2018-09-19T00:43:56.255Z,0
2018-09-19T00:45:06.411Z,0
2018-09-19T00:46:16.557Z,0
2018-09-19T00:47:26.787Z,0
2018-09-19T00:48:36.673Z,0
2018-09-19T00:49:46.816Z,0
2018-09-19T00:50:57.069Z,0
2018-09-19T00:52:07.209Z,0
2018-09-19T00:53:17.358Z,0
2018-09-19T00:54:27.512Z,0
2018-09-19T00:55:37.665Z,0
2018-09-19T00:56:47.847Z,0
2018-09-19T00:57:57.712Z,0
2018-09-19T00:59:07.904Z,0
2018-09-19T01:00:17.782Z,0
2018-09-19T01:01:27.934Z,0
2018-09-19T01:02:38.108Z,0
2018-09-19T01:03:48.287Z,0
2018-09-19T01:04:58.486Z,0
2018-09-19T01:06:08.674Z,0
2018-09-19T01:07:18.579Z,0
2018-09-19T01:08:28.455Z,0
2018-09-19T01:09:38.608Z,0
2018-09-19T01:10:48.805Z,0
2018-09-19T01:11:58.941Z,0
2018-09-19T01:13:09.104Z,0
2018-09-19T01:14:19.251Z,0
2018-09-19T01:15:29.443Z,0
2018-09-19T01:16:39.637Z,0
2018-09-19T01:17:49.573Z,0
2018-09-19T01:18:59.750Z,0
2018-09-19T01:20:09.906Z,0
2018-09-19T01:21:20.054Z,0
2018-09-19T01:22:30.353Z,0
2018-09-19T01:23:40.490Z,0
2018-09-19T01:24:50.632Z,0
2018-09-19T01:26:00.789Z,0
2018-09-19T01:27:10.949Z,0
2018-09-19T01:28:21.138Z,0
2018-09-19T01:29:31.115Z,0
2018-09-19T01:30:41.264Z,0
2018-09-19T01:31:51.171Z,0
2018-09-19T01:33:01.401Z,0
2018-09-19T01:34:11.553Z,0
2018-09-19T01:35:21.697Z,0
2018-09-19T01:36:31.865Z,0
2018-09-19T01:37:42.017Z,0
2018-09-19T01:38:52.252Z,0
2018-09-19T01:40:02.165Z,0
2018-09-19T01:41:12.381Z,0
2018-09-19T01:42:22.541Z,0
2018-09-19T01:43:32.739Z,0
2018-09-19T01:44:42.888Z,0
2018-09-19T01:45:52.805Z,0
2018-09-19T01:47:02.708Z,0
2018-09-19T01:48:12.849Z,0
2018-09-19T01:49:23.014Z,0
2018-09-19T01:50:33.188Z,0
2018-09-19T01:51:43.339Z,0
2018-09-19T01:52:53.490Z,0
2018-09-19T01:54:03.647Z,0
2018-09-19T01:55:13.515Z,0
2018-09-19T01:56:23.662Z,0
2018-09-19T01:57:33.810Z,0
2018-09-19T01:58:43.969Z,0
2018-09-19T01:59:54.141Z,0
2018-09-19T02:01:04.292Z,0
2018-09-19T02:02:14.166Z,0
2018-09-19T02:03:24.356Z,0
2018-09-19T02:04:34.510Z,0
2018-09-19T02:05:44.668Z,0
2018-09-19T02:06:54.811Z,0
2018-09-19T02:08:04.964Z,0
2018-09-19T02:09:15.114Z,0
2018-09-19T02:10:25.260Z,0
2018-09-19T02:11:35.401Z,0
2018-09-19T02:12:45.554Z,0
2018-09-19T02:13:55.707Z,0
2018-09-19T02:15:06.500Z,0
2018-09-19T02:16:16.647Z,0
2018-09-19T02:17:26.853Z,0
2018-09-19T02:18:36.763Z,0
2018-09-19T02:19:46.969Z,0
2018-09-19T02:20:57.018Z,0
2018-09-19T02:22:06.895Z,0
2018-09-19T02:23:17.055Z,0
2018-09-19T02:24:27.212Z,0
2018-09-19T02:25:37.147Z,0
2018-09-19T02:26:47.340Z,0
2018-09-19T02:27:57.493Z,0
2018-09-19T02:29:07.640Z,0
2018-09-19T02:30:17.796Z,0
2018-09-19T02:31:27.961Z,0
2018-09-19T02:32:38.254Z,0
2018-09-19T02:33:48.425Z,0
2018-09-19T02:34:58.595Z,0
2018-09-19T02:36:08.480Z,0
2018-09-19T02:37:18.651Z,0
2018-09-19T02:38:28.858Z,0
2018-09-19T02:39:39.075Z,0
2018-09-19T02:40:49.235Z,0
2018-09-19T02:41:59.106Z,0
2018-09-19T02:43:08.995Z,0
2018-09-19T02:44:19.223Z,0
2018-09-19T02:45:29.396Z,0
2018-09-19T02:46:39.552Z,0
2018-09-19T02:47:49.706Z,0
2018-09-19T02:48:59.867Z,0
2018-09-19T02:50:09.751Z,0
2018-09-19T02:51:19.901Z,0
2018-09-19T02:52:29.796Z,0
2018-09-19T02:53:39.692Z,0
2018-09-19T02:54:49.961Z,0
2018-09-19T02:56:00.289Z,0
2018-09-19T02:57:10.510Z,0
2018-09-19T02:58:20.675Z,0
2018-09-19T02:59:30.859Z,0
2018-09-19T03:00:41.116Z,0
2018-09-19T03:01:51.318Z,0
2018-09-19T03:03:01.470Z,0
2018-09-19T03:04:11.609Z,0
2018-09-19T03:05:21.785Z,0
2018-09-19T03:06:31.943Z,0
2018-09-19T03:07:42.146Z,0
2018-09-19T03:08:52.299Z,0
2018-09-19T03:10:02.511Z,0
2018-09-19T03:11:12.424Z,0
2018-09-19T03:12:22.567Z,0
2018-09-19T03:13:32.730Z,0
2018-09-19T03:14:42.891Z,0
2018-09-19T03:15:53.047Z,0
2018-09-19T03:17:03.460Z,0
2018-09-19T03:18:13.400Z,0
2018-09-19T03:19:23.557Z,0
2018-09-19T03:20:33.709Z,0
2018-09-19T03:21:43.871Z,0
2018-09-19T03:22:53.786Z,0
2018-09-19T03:24:03.955Z,0
2018-09-19T03:25:14.156Z,0
2018-09-19T03:26:24.046Z,0
2018-09-19T03:27:33.924Z,0
2018-09-19T03:28:43.803Z,0
2018-09-19T03:29:53.409Z,0
2018-09-19T03:31:03.624Z,0
2018-09-19T03:32:13.826Z,0
2018-09-19T03:33:23.995Z,0
2018-09-19T03:34:34.136Z,0
2018-09-19T03:35:44.332Z,0
2018-09-19T03:36:54.257Z,0
2018-09-19T03:38:04.403Z,0
2018-09-19T03:39:14.550Z,0
2018-09-19T03:40:24.812Z,0
2018-09-19T03:41:34.969Z,0
2018-09-19T03:42:45.175Z,0
2018-09-19T03:43:55.034Z,0
2018-09-19T03:45:05.183Z,0
2018-09-19T03:46:15.319Z,0
2018-09-19T03:47:25.202Z,0
2018-09-19T03:48:35.414Z,0
2018-09-19T03:49:45.570Z,0
2018-09-19T03:50:55.741Z,0
2018-09-19T03:52:05.891Z,0
2018-09-19T03:53:15.777Z,0
2018-09-19T03:54:26.007Z,0
2018-09-19T03:55:36.208Z,0
2018-09-19T03:56:46.370Z,0
2018-09-19T03:57:56.576Z,0
2018-09-19T03:59:06.496Z,0
2018-09-19T04:00:16.445Z,0
2018-09-19T04:01:26.608Z,0
2018-09-19T04:02:36.753Z,0
2018-09-19T04:03:46.907Z,0
2018-09-19T04:04:57.096Z,0
2018-09-19T04:06:07.266Z,0
2018-09-19T04:07:17.426Z,0
2018-09-19T04:08:27.579Z,0
2018-09-19T04:09:37.750Z,0
2018-09-19T04:10:47.913Z,0
2018-09-19T04:11:58.135Z,0
2018-09-19T04:13:08.305Z,4
2018-09-19T04:14:18.474Z,4
2018-09-19T04:15:28.671Z,0
2018-09-19T04:16:38.546Z,0
2018-09-19T04:17:49.027Z,4
2018-09-19T04:18:59.051Z,0
2018-09-19T04:20:08.388Z,4
2018-09-19T04:21:18.559Z,8
2018-09-19T04:22:28.743Z,8
2018-09-19T04:23:38.890Z,8
2018-09-19T04:24:49.033Z,8
2018-09-19T04:25:59.188Z,8
2018-09-19T04:27:09.409Z,12
2018-09-19T04:28:19.578Z,16
2018-09-19T04:29:29.539Z,16
2018-09-19T04:30:39.734Z,20
2018-09-19T04:31:49.885Z,24
2018-09-19T04:33:00.101Z,24
2018-09-19T04:34:10.250Z,32
2018-09-19T04:35:20.438Z,36
2018-09-19T04:36:30.591Z,44
2018-09-19T04:37:40.736Z,52
2018-09-19T04:38:50.605Z,56
2018-09-19T04:40:00.756Z,64
2018-09-19T04:41:10.895Z,72
2018-09-19T04:42:20.777Z,84
2018-09-19T04:43:30.937Z,92
2018-09-19T04:44:40.826Z,104
2018-09-19T04:45:50.981Z,120
2018-09-19T04:47:01.189Z,132
2018-09-19T04:48:11.374Z,148
2018-09-19T04:49:21.281Z,168
2018-09-19T04:50:31.460Z,184
2018-09-19T04:51:42.267Z,204
2018-09-19T04:52:52.537Z,224
2018-09-19T04:54:02.441Z,248
2018-09-19T04:55:12.594Z,272
2018-09-19T04:56:22.772Z,300
2018-09-19T04:57:32.942Z,324
2018-09-19T04:58:43.134Z,348
2018-09-19T04:59:53.287Z,376
2018-09-19T05:01:03.442Z,408
2018-09-19T05:02:13.608Z,440
2018-09-19T05:03:23.754Z,472
2018-09-19T05:04:33.956Z,504
2018-09-19T05:05:44.409Z,536
2018-09-19T05:06:54.710Z,572
2018-09-19T05:08:04.862Z,604
2018-09-19T05:09:14.748Z,644
2018-09-19T05:10:24.967Z,676
2018-09-19T05:11:35.235Z,712
2018-09-19T05:12:45.467Z,752
2018-09-19T05:13:55.611Z,788
2018-09-19T05:15:05.478Z,820
2018-09-19T05:16:15.401Z,860
2018-09-19T05:17:25.268Z,888
2018-09-19T05:18:35.408Z,916
2018-09-19T05:19:45.548Z,952
2018-09-19T05:20:55.695Z,1004
2018-09-19T05:22:05.844Z,1040
2018-09-19T05:23:15.994Z,1076
2018-09-19T05:24:25.893Z,1124
2018-09-19T05:25:36.057Z,1156
2018-09-19T05:26:46.193Z,1196
2018-09-19T05:27:56.391Z,1232
2018-09-19T05:29:06.304Z,1264
2018-09-19T05:30:16.460Z,1300
2018-09-19T05:31:26.706Z,1332
2018-09-19T05:32:36.616Z,1360
2018-09-19T05:33:46.861Z,1392
2018-09-19T05:34:56.465Z,1424
2018-09-19T05:36:06.336Z,1452
2018-09-19T05:37:16.489Z,1484
2018-09-19T05:38:26.628Z,1508
2018-09-19T05:39:36.549Z,1540
2018-09-19T05:40:46.424Z,1564
2018-09-19T05:41:56.568Z,1592
2018-09-19T05:43:06.713Z,1620
2018-09-19T05:44:16.857Z,1648
2018-09-19T05:45:27.008Z,1672
2018-09-19T05:46:37.317Z,1700
2018-09-19T05:47:47.522Z,1728
2018-09-19T05:48:57.681Z,1752
2018-09-19T05:50:07.555Z,1780
2018-09-19T05:51:17.763Z,1800
2018-09-19T05:52:27.907Z,1824
2018-09-19T05:53:38.058Z,1848
2018-09-19T05:54:48.387Z,1864
2018-09-19T05:55:58.531Z,1884
2018-09-19T05:57:08.743Z,1912
2018-09-19T05:58:18.343Z,1932
2018-09-19T05:59:28.501Z,1956
2018-09-19T06:00:38.676Z,1980
2018-09-19T06:01:48.822Z,1996
2018-09-19T06:02:59.012Z,2020
2018-09-19T06:04:08.600Z,2036
2018-09-19T06:05:18.757Z,2060
2018-09-19T06:06:28.629Z,2072
2018-09-19T06:07:38.796Z,2096
2018-09-19T06:08:48.995Z,2116
2018-09-19T06:09:58.869Z,2132
2018-09-19T06:11:08.755Z,2148
2018-09-19T06:12:18.898Z,2168
2018-09-19T06:13:29.048Z,2184
2018-09-19T06:14:39.258Z,2200
2018-09-19T06:15:49.403Z,2216
2018-09-19T06:16:59.541Z,2228
2018-09-19T06:18:09.701Z,2224
2018-09-19T06:19:19.850Z,2232
2018-09-19T06:20:30.060Z,2244
2018-09-19T06:21:40.204Z,2264
2018-09-19T06:22:50.358Z,2288
2018-09-19T06:24:00.500Z,2316
2018-09-19T06:25:10.369Z,2332
2018-09-19T06:26:20.292Z,2348
2018-09-19T06:27:30.438Z,2372
2018-09-19T06:28:40.580Z,2396
2018-09-19T06:29:50.737Z,2408
2018-09-19T06:31:00.883Z,2420
2018-09-19T06:32:11.099Z,2440
2018-09-19T06:33:21.281Z,2452
2018-09-19T06:34:31.546Z,2472
2018-09-19T06:35:41.712Z,2484
2018-09-19T06:36:51.624Z,2504
2018-09-19T06:38:01.614Z,2520
2018-09-19T06:39:11.768Z,2536
2018-09-19T06:40:22.328Z,2552
2018-09-19T06:41:32.310Z,2572
2018-09-19T06:42:42.636Z,2692
2018-09-19T06:43:59.097Z,2996
2018-09-19T06:45:09.521Z,2992
2018-09-19T06:46:19.951Z,2436
2018-09-19T06:47:30.194Z,2292
2018-09-19T06:48:40.390Z,2364
2018-09-19T06:49:50.606Z,2488
2018-09-19T06:51:00.474Z,2504
2018-09-19T06:52:10.691Z,2296
2018-09-19T06:53:20.907Z,2396
2018-09-19T06:54:31.051Z,2488
2018-09-19T06:55:41.258Z,2392
2018-09-19T06:56:51.412Z,2292
2018-09-19T06:58:01.288Z,2316
2018-09-19T06:59:11.435Z,2416
2018-09-19T07:00:21.611Z,2828
2018-09-19T07:01:31.964Z,2376
2018-09-19T07:02:41.838Z,2348
2018-09-19T07:03:51.706Z,2384
2018-09-19T07:05:01.856Z,2440
2018-09-19T07:06:12.054Z,2572
2018-09-19T07:07:22.201Z,2648
2018-09-19T07:08:32.338Z,2624
2018-09-19T07:09:41.927Z,2700
2018-09-19T07:10:52.204Z,2816
2018-09-19T07:12:02.375Z,2900
2018-09-19T07:13:12.391Z,3408
2018-09-19T07:14:22.539Z,3080
2018-09-19T07:15:32.786Z,3180
2018-09-19T07:16:43.016Z,3412
2018-09-19T07:17:52.895Z,3988
2018-09-19T07:19:03.613Z,4436
2018-09-19T07:20:13.275Z,4584
2018-09-19T07:21:23.423Z,4652
2018-09-19T07:22:33.580Z,4616
2018-09-19T07:23:44.003Z,4668
2018-09-19T07:24:54.264Z,4844
2018-09-19T07:26:04.457Z,5180
2018-09-19T07:27:14.641Z,5180
2018-09-19T07:28:24.784Z,5564
2018-09-19T07:29:34.945Z,6196
2018-09-19T07:30:45.140Z,6400
2018-09-19T07:31:55.323Z,6732
2018-09-19T07:33:05.481Z,7180
2018-09-19T07:34:15.623Z,7580
2018-09-19T07:35:25.486Z,7648
2018-09-19T07:36:35.467Z,7540
2018-09-19T07:37:45.339Z,7320
2018-09-19T07:38:55.481Z,6960
2018-09-19T07:40:05.378Z,6604
2018-09-19T07:41:15.577Z,6404
2018-09-19T07:42:24.943Z,6360
2018-09-19T07:43:35.082Z,6440
2018-09-19T07:44:44.963Z,6588
2018-09-19T07:45:55.135Z,6628
2018-09-19T07:47:05.279Z,6476
2018-09-19T07:48:15.482Z,6352
2018-09-19T07:49:25.638Z,6400
2018-09-19T07:50:35.507Z,6572
2018-09-19T07:51:45.660Z,6780
2018-09-19T07:52:55.810Z,6924
2018-09-19T07:54:06.008Z,6988
2018-09-19T07:55:16.384Z,6932
2018-09-19T07:56:26.657Z,6836
2018-09-19T07:57:36.530Z,6796
2018-09-19T07:58:46.405Z,6920
2018-09-19T07:59:56.641Z,7080
2018-09-19T08:01:06.836Z,7108
2018-09-19T08:02:17.289Z,7092
2018-09-19T08:03:27.534Z,7096
2018-09-19T08:04:37.401Z,7140
2018-09-19T08:05:47.562Z,7012
2018-09-19T08:06:57.770Z,6940
2018-09-19T08:08:07.919Z,7068
2018-09-19T08:09:18.674Z,7212
2018-09-19T08:10:28.893Z,7624
2018-09-19T08:11:39.117Z,7728
2018-09-19T08:12:49.269Z,7868
2018-09-19T08:13:59.146Z,7772
2018-09-19T08:15:09.309Z,7344
2018-09-19T08:16:19.486Z,7168
2018-09-19T08:17:30.484Z,6660
2018-09-19T08:18:40.645Z,6448
2018-09-19T08:19:50.794Z,6488
2018-09-19T08:21:00.664Z,6700
2018-09-19T08:22:10.931Z,6912
2018-09-19T08:23:21.077Z,7088
2018-09-19T08:24:31.243Z,7224
2018-09-19T08:25:41.433Z,7288
2018-09-19T08:26:51.592Z,7140
2018-09-19T08:28:01.749Z,6724
2018-09-19T08:29:11.901Z,6192
2018-09-19T08:30:22.056Z,5756
2018-09-19T08:31:32.214Z,5448
2018-09-19T08:32:42.367Z,5480
2018-09-19T08:33:52.530Z,5680
2018-09-19T08:35:02.467Z,6124
2018-09-19T08:36:12.609Z,6848
2018-09-19T08:37:22.767Z,7572
2018-09-19T08:38:32.922Z,8016
2018-09-19T08:39:43.069Z,8300
2018-09-19T08:40:53.279Z,8200
2018-09-19T08:42:03.148Z,8200
2018-09-19T08:43:13.292Z,7864
2018-09-19T08:44:23.438Z,7172
2018-09-19T08:45:33.598Z,6776
2018-09-19T08:46:43.750Z,6848
2018-09-19T08:47:53.905Z,6232
2018-09-19T08:49:04.063Z,6824
2018-09-19T08:50:14.276Z,7388
2018-09-19T08:51:24.435Z,6856
2018-09-19T08:52:35.429Z,6400
2018-09-19T08:53:45.579Z,5768
2018-09-19T08:54:55.775Z,5336
2018-09-19T08:56:05.931Z,4592
2018-09-19T08:57:16.475Z,3708
2018-09-19T08:58:26.623Z,2896
2018-09-19T08:59:36.498Z,2628
2018-09-19T09:00:46.369Z,2776
2018-09-19T09:01:56.242Z,3012
2018-09-19T09:03:06.392Z,3884
2018-09-19T09:04:16.544Z,4084
2018-09-19T09:05:26.789Z,4380
2018-09-19T09:06:37.166Z,4632
2018-09-19T09:07:47.037Z,4776
2018-09-19T09:08:57.182Z,4668
2018-09-19T09:10:07.440Z,4576
2018-09-19T09:11:17.589Z,3872
2018-09-19T09:12:28.179Z,3744
2018-09-19T09:13:38.500Z,3820
2018-09-19T09:14:48.662Z,3624
2018-09-19T09:15:58.539Z,3412
2018-09-19T09:17:08.691Z,3620
2018-09-19T09:18:18.840Z,3552
2018-09-19T09:19:28.983Z,3496
2018-09-19T09:20:39.201Z,3632
2018-09-19T09:21:49.086Z,4060
2018-09-19T09:22:58.977Z,4192
2018-09-19T09:24:09.162Z,4176
2018-09-19T09:25:19.305Z,4164
2018-09-19T09:26:29.455Z,4188
2018-09-19T09:27:39.622Z,4212
2018-09-19T09:28:49.498Z,4200
2018-09-19T09:29:59.709Z,4188
2018-09-19T09:31:10.071Z,4156
2018-09-19T09:32:19.919Z,4132
2018-09-19T09:33:30.111Z,4136
2018-09-19T09:34:40.263Z,4184
2018-09-19T09:35:50.429Z,4252
2018-09-19T09:37:00.779Z,4272
2018-09-19T09:38:10.988Z,4292
2018-09-19T09:39:21.229Z,4232
2018-09-19T09:40:31.807Z,4176
2018-09-19T09:41:41.862Z,4128
2018-09-19T09:42:52.006Z,4096
2018-09-19T09:44:02.158Z,4064
2018-09-19T09:45:12.056Z,4060
2018-09-19T09:46:22.261Z,4064
2018-09-19T09:47:32.426Z,4076
2018-09-19T09:48:42.595Z,4084
2018-09-19T09:49:52.469Z,4100
2018-09-19T09:51:02.621Z,4104
2018-09-19T09:52:12.797Z,4104
2018-09-19T09:53:23.231Z,4116
2018-09-19T09:54:33.009Z,4132
2018-09-19T09:55:43.172Z,4144
2018-09-19T09:56:53.362Z,4168
2018-09-19T09:58:03.516Z,4160
2018-09-19T09:59:13.668Z,4172
2018-09-19T10:00:23.870Z,4164
2018-09-19T10:01:33.744Z,4188
2018-09-19T10:02:43.940Z,4196
2018-09-19T10:03:54.100Z,4216
2018-09-19T10:05:03.963Z,4240
2018-09-19T10:06:13.837Z,4256
2018-09-19T10:07:24.036Z,4268
2018-09-19T10:08:34.203Z,4288
2018-09-19T10:09:44.414Z,4284
2018-09-19T10:10:54.015Z,4300
2018-09-19T10:12:04.165Z,4300
2018-09-19T10:13:14.302Z,4320
2018-09-19T10:14:24.174Z,4344
2018-09-19T10:15:34.324Z,4416
2018-09-19T10:16:44.202Z,4416
2018-09-19T10:17:54.341Z,4412
2018-09-19T10:19:04.220Z,4424
2018-09-19T10:20:14.087Z,4468
2018-09-19T10:21:24.248Z,4496
2018-09-19T10:22:34.404Z,4504
2018-09-19T10:23:44.544Z,4528
2018-09-19T10:24:54.699Z,4544
2018-09-19T10:26:04.570Z,4560
2018-09-19T10:27:14.716Z,4572
2018-09-19T10:28:24.854Z,4608
2018-09-19T10:29:35.219Z,4612
2018-09-19T10:30:45.181Z,4620
2018-09-19T10:31:55.050Z,4648
2018-09-19T10:33:05.206Z,4668
2018-09-19T10:34:15.070Z,4684
2018-09-19T10:35:25.585Z,4700
2018-09-19T10:36:35.893Z,4720
2018-09-19T10:37:46.042Z,4744
2018-09-19T10:38:56.197Z,4768
2018-09-19T10:40:06.352Z,4808
2018-09-19T10:41:16.574Z,4836
2018-09-19T10:42:26.715Z,4876
2018-09-19T10:43:36.859Z,4908
2018-09-19T10:44:47.034Z,4948
2018-09-19T10:45:57.180Z,5000
2018-09-19T10:47:06.772Z,4996
2018-09-19T10:48:16.683Z,5028
2018-09-19T10:49:27.043Z,5096
2018-09-19T10:50:36.963Z,5156
2018-09-19T10:51:47.100Z,5212
2018-09-19T10:52:57.250Z,5252
2018-09-19T10:54:07.116Z,5248
2018-09-19T10:55:17.053Z,5252
2018-09-19T10:56:27.202Z,5296
2018-09-19T10:57:37.076Z,5372
2018-09-19T10:58:46.948Z,5480
2018-09-19T10:59:57.100Z,5780
2018-09-19T11:01:07.294Z,7524
2018-09-19T11:02:17.431Z,32672
2018-09-19T11:03:27.576Z,47680
2018-09-19T11:04:37.715Z,48608
2018-09-19T11:05:47.592Z,49632
2018-09-19T11:06:57.248Z,49472
2018-09-19T11:08:07.389Z,52064
2018-09-19T11:09:17.529Z,50368
2018-09-19T11:10:27.688Z,49280
2018-09-19T11:11:37.289Z,47808
2018-09-19T11:12:47.436Z,49504
2018-09-19T11:13:57.585Z,50336
2018-09-19T11:15:07.460Z,51264
2018-09-19T11:16:17.332Z,50432
2018-09-19T11:17:27.205Z,49248
2018-09-19T11:18:36.806Z,47744
2018-09-19T11:19:46.953Z,47104
2018-09-19T11:20:57.098Z,51040
2018-09-19T11:22:06.970Z,49024
2018-09-19T11:23:16.836Z,49568
2018-09-19T11:24:26.702Z,50272
2018-09-19T11:25:36.845Z,45792
2018-09-19T11:26:46.988Z,42208
2018-09-19T11:27:57.149Z,41248
2018-09-19T11:29:07.058Z,40608
2018-09-19T11:30:17.202Z,40320
2018-09-19T11:31:27.351Z,40704
2018-09-19T11:32:37.503Z,42208
2018-09-19T11:33:47.649Z,40320
2018-09-19T11:34:57.803Z,40896
2018-09-19T11:36:07.674Z,39552
2018-09-19T11:37:17.815Z,38560
2018-09-19T11:38:27.141Z,41728
2018-09-19T11:39:37.286Z,48256
2018-09-19T11:40:47.161Z,51520
2018-09-19T11:41:57.034Z,50240
2018-09-19T11:43:06.633Z,49216
2018-09-19T11:44:16.562Z,49184
2018-09-19T11:45:26.708Z,51008
2018-09-19T11:46:36.304Z,49120
2018-09-19T11:47:46.456Z,48544
2018-09-19T11:48:56.349Z,48192
2018-09-19T11:50:06.498Z,48992
2018-09-19T11:51:16.648Z,49792
2018-09-19T11:52:26.798Z,47328
2018-09-19T11:53:36.999Z,47488
2018-09-19T11:54:47.146Z,48448
2018-09-19T11:55:56.749Z,48576
2018-09-19T11:57:06.615Z,49664
2018-09-19T11:58:16.614Z,48704
2018-09-19T11:59:26.764Z,47776
2018-09-19T12:00:36.912Z,48640
2018-09-19T12:01:46.784Z,48864
2018-09-19T12:02:56.664Z,47744
2018-09-19T12:04:06.823Z,48736
2018-09-19T12:05:17.021Z,51136
2018-09-19T12:06:27.168Z,51488
2018-09-19T12:07:37.318Z,51968
2018-09-19T12:08:47.469Z,50720
2018-09-19T12:09:57.626Z,52928
2018-09-19T12:11:07.827Z,50912
2018-09-19T12:12:17.973Z,47296
2018-09-19T12:13:28.122Z,45568
2018-09-19T12:14:37.998Z,35520
2018-09-19T12:15:47.867Z,14004
2018-09-19T12:16:57.788Z,8112
2018-09-19T12:18:07.662Z,9020
2018-09-19T12:19:17.820Z,38176
2018-09-19T12:20:28.045Z,39968
2018-09-19T12:21:37.918Z,37824
2018-09-19T12:22:48.115Z,42112
2018-09-19T12:23:57.987Z,49920
2018-09-19T12:25:08.139Z,47808
2018-09-19T12:26:18.576Z,37120
2018-09-19T12:27:28.875Z,33600
2018-09-19T12:28:39.093Z,35328
2018-09-19T12:29:49.237Z,36480
2018-09-19T12:30:59.436Z,35840
2018-09-19T12:32:09.588Z,35232
2018-09-19T12:33:19.652Z,30912
2018-09-19T12:34:30.020Z,28928
2018-09-19T12:35:39.899Z,29472
2018-09-19T12:36:50.054Z,29984
2018-09-19T12:38:00.201Z,28416
2018-09-19T12:39:10.081Z,27168
2018-09-19T12:40:20.003Z,29216
2018-09-19T12:41:29.604Z,28832
2018-09-19T12:42:39.753Z,29088
2018-09-19T12:43:49.899Z,29152
2018-09-19T12:45:00.045Z,29728
2018-09-19T12:46:10.067Z,29664
2018-09-19T12:47:19.939Z,29888
2018-09-19T12:48:30.133Z,30336
2018-09-19T12:49:40.287Z,30848
2018-09-19T12:50:50.165Z,30752
2018-09-19T12:52:00.120Z,31168
2018-09-19T12:53:10.303Z,31168
2018-09-19T12:54:20.257Z,30528
2018-09-19T12:55:30.414Z,33440
2018-09-19T12:56:40.019Z,33472
2018-09-19T12:57:50.232Z,33632
2018-09-19T12:59:00.383Z,29728
2018-09-19T13:00:09.714Z,23072
2018-09-19T13:01:19.599Z,13464
2018-09-19T13:02:29.745Z,20704
2018-09-19T13:03:39.942Z,11036
2018-09-19T13:04:50.094Z,8216
2018-09-19T13:06:00.027Z,13852
2018-09-19T13:07:09.624Z,22016
2018-09-19T13:08:19.498Z,29408
2018-09-19T13:09:29.096Z,21344
2018-09-19T13:10:39.244Z,9648
2018-09-19T13:11:48.841Z,15908
2018-09-19T13:12:58.714Z,10056
2018-09-19T13:14:08.584Z,6064
2018-09-19T13:15:18.733Z,5788
2018-09-19T13:16:28.879Z,5640
2018-09-19T13:17:39.027Z,5512
2018-09-19T13:18:49.172Z,9688
2018-09-19T13:19:59.321Z,6440
2018-09-19T13:21:09.239Z,8384
2018-09-19T13:22:18.831Z,6184
2018-09-19T13:23:28.698Z,6824
2018-09-19T13:24:38.288Z,6344
2018-09-19T13:25:48.152Z,5732
2018-09-19T13:26:57.744Z,5872
2018-09-19T13:28:07.896Z,5456
2018-09-19T13:29:18.039Z,5316
2018-09-19T13:30:27.910Z,5652
2018-09-19T13:31:37.786Z,5256
2018-09-19T13:32:47.706Z,5328
2018-09-19T13:33:57.854Z,5448
2018-09-19T13:35:07.754Z,5320
2018-09-19T13:36:17.897Z,5296
2018-09-19T13:37:27.763Z,5600
2018-09-19T13:38:37.637Z,4668
2018-09-19T13:39:47.782Z,12384
2018-09-19T13:40:57.930Z,9540
2018-09-19T13:42:08.068Z,6968
2018-09-19T13:43:17.934Z,7800
2018-09-19T13:44:28.127Z,5584
2018-09-19T13:45:38.267Z,6292
2018-09-19T13:46:48.405Z,5884
2018-09-19T13:47:58.550Z,6736
2018-09-19T13:49:08.697Z,6612
2018-09-19T13:50:18.616Z,8212
2018-09-19T13:51:28.757Z,8288
2018-09-19T13:52:38.623Z,5856
2018-09-19T13:53:48.760Z,5912
2018-09-19T13:54:58.902Z,5308
2018-09-19T13:56:08.539Z,5520
2018-09-19T13:57:18.134Z,5272
2018-09-19T13:58:28.287Z,5020
2018-09-19T13:59:38.153Z,6712
2018-09-19T14:00:48.028Z,14148
2018-09-19T14:01:57.673Z,36992
2018-09-19T14:03:07.818Z,38304
2018-09-19T14:04:17.556Z,9384
2018-09-19T14:05:27.804Z,6292
2018-09-19T14:06:37.949Z,6200
2018-09-19T14:07:48.194Z,5088
2018-09-19T14:08:58.348Z,7468
2018-09-19T14:10:08.212Z,14396
2018-09-19T14:11:18.103Z,19872
2018-09-19T14:12:28.465Z,8900
2018-09-19T14:13:38.388Z,6732
2018-09-19T14:14:48.537Z,8896
2018-09-19T14:15:58.404Z,11780
2018-09-19T14:17:08.274Z,8336
2018-09-19T14:18:18.139Z,6604
2018-09-19T14:19:28.382Z,8720
2018-09-19T14:20:38.526Z,7972
2018-09-19T14:21:48.122Z,7144
2018-09-19T14:22:58.263Z,11252
2018-09-19T14:24:08.137Z,10352
2018-09-19T14:25:18.325Z,13212
2018-09-19T14:26:28.204Z,19712
2018-09-19T14:27:37.801Z,14732
2018-09-19T14:28:47.948Z,9828
2018-09-19T14:29:57.819Z,11040
2018-09-19T14:31:07.964Z,11220
2018-09-19T14:32:18.166Z,9096
2018-09-19T14:33:28.038Z,11252
2018-09-19T14:34:38.218Z,10312
2018-09-19T14:35:48.829Z,15360
2018-09-19T14:36:59.421Z,26720
2018-09-19T14:38:09.289Z,39200
2018-09-19T14:39:19.152Z,23520
2018-09-19T14:40:29.024Z,30336
2018-09-19T14:41:39.168Z,26848
2018-09-19T14:42:49.358Z,28768
2018-09-19T14:43:59.495Z,21216
2018-09-19T14:45:09.360Z,13324
2018-09-19T14:46:18.953Z,15776
2018-09-19T14:47:28.825Z,24000
2018-09-19T14:48:39.600Z,25344
2018-09-19T14:49:49.505Z,22336
2018-09-19T14:50:59.649Z,22720
2018-09-19T14:52:09.520Z,18560
2018-09-19T14:53:19.386Z,20544
2018-09-19T14:54:29.978Z,22816
2018-09-19T14:55:39.591Z,22496
2018-09-19T14:56:49.464Z,21088
2018-09-19T14:57:59.604Z,21728
2018-09-19T14:59:09.470Z,16192
2018-09-19T15:00:19.514Z,19424
2018-09-19T15:01:29.437Z,20032
2018-09-19T15:02:39.301Z,15108
2018-09-19T15:03:49.454Z,14960
2018-09-19T15:04:59.324Z,17184
2018-09-19T15:06:09.001Z,19136
2018-09-19T15:07:19.140Z,17664
2018-09-19T15:08:29.006Z,15808
2018-09-19T15:09:39.167Z,14560
2018-09-19T15:10:49.047Z,13208
2018-09-19T15:11:59.185Z,10240
2018-09-19T15:13:09.324Z,9452
2018-09-19T15:14:19.467Z,8956
2018-09-19T15:15:29.619Z,8512
2018-09-19T15:16:39.759Z,8068
2018-09-19T15:17:49.907Z,7652
2018-09-19T15:19:00.048Z,7328
2018-09-19T15:20:09.923Z,7332
2018-09-19T15:21:19.804Z,7088
2018-09-19T15:22:29.397Z,6612
2018-09-19T15:23:39.311Z,6364
2018-09-19T15:24:49.203Z,6164
2018-09-19T15:25:59.345Z,6016
2018-09-19T15:27:08.936Z,5944
2018-09-19T15:28:18.278Z,5896
2018-09-19T15:29:28.201Z,5784
2018-09-19T15:30:38.089Z,5536
2018-09-19T15:31:47.403Z,5244
2018-09-19T15:32:56.999Z,4972
2018-09-19T15:34:06.905Z,4924
2018-09-19T15:35:18.782Z,4964
2018-09-19T15:36:28.925Z,4948
2018-09-19T15:37:38.919Z,4872
2018-09-19T15:38:49.061Z,4780
2018-09-19T15:39:58.934Z,4716
2018-09-19T15:41:09.135Z,4776
2018-09-19T15:42:19.002Z,4768
2018-09-19T15:43:28.898Z,4696
2018-09-19T15:44:39.055Z,4612
2018-09-19T15:45:48.923Z,4420
2018-09-19T15:46:59.162Z,4280
2018-09-19T15:48:09.089Z,4252
2018-09-19T15:49:18.959Z,4256
2018-09-19T15:50:28.829Z,4148
2018-09-19T15:51:38.969Z,3940
2018-09-19T15:52:49.105Z,3744
2018-09-19T15:53:59.243Z,3576
2018-09-19T15:55:09.109Z,3380
2018-09-19T15:56:19.248Z,3176